Time;durP1;ratioP1;P1;durP2;ratioP2;P2;SDS_P1;SDS_P2;PMS_P1;PMS_P2;Temp;Humidity;BMP_temperature;BMP_pressure;BME280_temperature;BME280_humidity;BME280_pressure;Samples;Min_cycle;Max_cycle;Signal;HPM_P1;HPM_P2
2021/10/03 00:01:11;;;;;;;5.37;4.87;;;13.80;99.90;;;;;;5043739;28;20488;-76
2021/10/03 00:03:40;;;;;;;5.80;5.30;;;13.60;99.90;;;;;;5031188;28;20492;-76
2021/10/03 00:06:10;;;;;;;5.27;4.83;;;13.60;99.90;;;;;;5033750;28;21003;-76
2021/10/03 00:08:36;;;;;;;5.67;5.17;;;13.50;99.90;;;;;;5030096;28;21028;-77
2021/10/03 00:11:02;;;;;;;5.83;5.33;;;13.50;99.90;;;;;;5038913;28;20449;-77
2021/10/03 00:13:27;;;;;;;6.13;5.63;;;13.50;99.90;;;;;;5043068;28;20453;-76
2021/10/03 00:15:54;;;;;;;5.80;5.07;;;13.30;99.90;;;;;;5041139;28;20190;-77
2021/10/03 00:18:20;;;;;;;5.50;5.00;;;13.30;99.90;;;;;;5030012;28;20300;-76
2021/10/03 00:20:45;;;;;;;5.33;4.83;;;13.20;99.90;;;;;;5034967;28;20875;-76
2021/10/03 00:23:12;;;;;;;5.63;5.20;;;13.10;99.90;;;;;;5039014;28;20513;-76
2021/10/03 00:25:38;;;;;;;5.77;5.20;;;13.20;99.90;;;;;;5030649;28;20194;-77
2021/10/03 00:28:06;;;;;;;6.93;5.37;;;13.30;99.90;;;;;;5045894;28;20441;-74
2021/10/03 00:30:32;;;;;;;6.10;5.50;;;13.10;99.90;;;;;;5047811;28;20445;-77
2021/10/03 00:32:57;;;;;;;6.27;5.20;;;13.30;99.90;;;;;;5036112;28;20445;-76
2021/10/03 00:35:23;;;;;;;6.07;5.43;;;13.20;99.90;;;;;;5039607;28;20498;-77
2021/10/03 00:37:49;;;;;;;6.47;5.47;;;13.00;99.90;;;;;;5036341;28;20203;-77
2021/10/03 00:40:15;;;;;;;5.70;5.20;;;13.30;99.90;;;;;;5029822;28;20417;-76
2021/10/03 00:42:42;;;;;;;6.30;5.80;;;12.90;99.90;;;;;;5035506;28;20557;-76
2021/10/03 00:45:09;;;;;;;6.13;5.50;;;13.20;99.90;;;;;;5030511;28;20445;-76
2021/10/03 00:47:36;;;;;;;5.83;5.33;;;13.00;99.90;;;;;;5043532;28;20476;-77
2021/10/03 00:50:03;;;;;;;6.00;5.50;;;12.90;99.90;;;;;;5045622;28;20441;-76
2021/10/03 00:52:28;;;;;;;6.30;5.70;;;12.80;99.90;;;;;;5045080;28;20527;-76
2021/10/03 00:54:53;;;;;;;6.00;4.93;;;12.60;99.90;;;;;;5044542;28;20580;-76
2021/10/03 00:57:19;;;;;;;6.10;5.60;;;12.80;99.90;;;;;;5044399;28;20273;-75
2021/10/03 00:59:45;;;;;;;6.00;5.40;;;13.00;99.90;;;;;;5048568;28;20183;-74
2021/10/03 01:02:10;;;;;;;5.83;5.23;;;13.10;99.90;;;;;;5035921;28;20279;-75
2021/10/03 01:04:36;;;;;;;6.93;5.83;;;12.80;99.90;;;;;;5039043;28;20186;-75
2021/10/03 01:07:02;;;;;;;5.60;5.10;;;12.80;99.90;;;;;;5043430;28;20191;-74
2021/10/03 01:09:28;;;;;;;6.33;5.73;;;13.00;99.90;;;;;;5029196;28;20195;-75
2021/10/03 01:11:54;;;;;;;6.37;5.83;;;13.10;99.90;;;;;;5029230;28;20428;-74
2021/10/03 01:14:20;;;;;;;9.33;5.50;;;13.20;99.90;;;;;;5031822;28;20249;-75
2021/10/03 01:16:48;;;;;;;5.83;5.27;;;13.30;99.90;;;;;;5047095;28;20436;-75
2021/10/03 01:19:14;;;;;;;5.93;5.33;;;13.20;99.90;;;;;;5033089;28;20497;-77
2021/10/03 01:21:44;;;;;;;5.80;5.30;;;13.10;99.90;;;;;;5043440;28;20966;-74
2021/10/03 01:24:10;;;;;;;6.00;5.40;;;13.10;99.90;;;;;;5036896;28;20244;-75
2021/10/03 01:26:36;;;;;;;5.70;5.17;;;13.20;99.90;;;;;;5043239;28;20931;-74
2021/10/03 01:29:01;;;;;;;6.60;6.00;;;13.30;99.90;;;;;;5032590;28;20417;-74
2021/10/03 01:31:29;;;;;;;5.50;5.00;;;13.30;99.90;;;;;;5039235;28;20248;-75
2021/10/03 01:33:57;;;;;;;6.00;5.50;;;13.30;99.90;;;;;;5041391;28;20631;-75
2021/10/03 01:36:24;;;;;;;5.80;5.30;;;13.20;99.90;;;;;;5037021;28;20444;-75
2021/10/03 01:38:49;;;;;;;6.13;5.60;;;13.10;99.90;;;;;;5037275;28;20469;-75
2021/10/03 01:41:15;;;;;;;5.97;5.47;;;13.70;99.90;;;;;;5049261;28;20494;-75
2021/10/03 01:43:40;;;;;;;5.03;4.53;;;13.40;99.90;;;;;;5046481;28;20187;-74
2021/10/03 01:46:06;;;;;;;6.37;5.77;;;13.50;99.90;;;;;;5040165;28;20210;-74
2021/10/03 01:48:33;;;;;;;5.20;4.70;;;13.70;99.90;;;;;;5049642;28;20187;-75
2021/10/03 01:51:01;;;;;;;6.13;5.53;;;13.50;99.90;;;;;;5052281;28;20567;-75
2021/10/03 01:53:29;;;;;;;5.57;5.17;;;13.50;99.90;;;;;;5051443;28;20519;-75
2021/10/03 01:55:56;;;;;;;5.50;5.00;;;13.50;99.90;;;;;;5041781;28;20449;-74
2021/10/03 01:58:24;;;;;;;6.80;4.83;;;13.60;99.90;;;;;;5041093;28;20562;-75
2021/10/03 02:00:53;;;;;;;5.10;4.70;;;13.60;99.90;;;;;;5049762;28;20437;-75
2021/10/03 02:03:19;;;;;;;5.73;5.23;;;13.50;99.90;;;;;;5046207;28;20440;-74
2021/10/03 02:05:46;;;;;;;5.33;4.83;;;13.60;99.90;;;;;;5047196;28;20485;-74
2021/10/03 02:08:13;;;;;;;5.23;4.73;;;13.50;99.90;;;;;;5044077;28;20559;-75
2021/10/03 02:10:43;;;;;;;5.57;5.07;;;13.50;99.90;;;;;;5041498;28;20448;-75
2021/10/03 02:13:10;;;;;;;5.80;5.30;;;13.50;99.90;;;;;;5033159;28;20854;-75
2021/10/03 02:15:39;;;;;;;6.30;5.10;;;13.60;99.90;;;;;;5035724;28;20875;-75
2021/10/03 02:18:09;;;;;;;5.47;4.97;;;13.50;99.90;;;;;;5041985;28;20943;-75
2021/10/03 02:20:35;;;;;;;5.90;5.30;;;13.60;99.90;;;;;;5046359;28;20516;-75
2021/10/03 02:23:03;;;;;;;5.63;5.13;;;13.40;99.90;;;;;;5041928;28;20468;-75
2021/10/03 02:25:29;;;;;;;4.93;4.53;;;13.50;99.90;;;;;;5036986;28;20450;-77
2021/10/03 02:27:55;;;;;;;5.90;5.40;;;13.50;99.90;;;;;;5031788;28;20442;-75
2021/10/03 02:30:20;;;;;;;6.40;5.90;;;13.50;99.90;;;;;;5042616;28;20244;-75
2021/10/03 02:32:46;;;;;;;5.80;5.30;;;13.50;99.90;;;;;;5033111;28;20187;-74
2021/10/03 02:35:12;;;;;;;5.87;5.37;;;13.30;99.90;;;;;;5038584;28;20218;-74
2021/10/03 02:37:39;;;;;;;5.33;4.93;;;13.50;99.90;;;;;;5047480;28;20202;-75
2021/10/03 02:40:08;;;;;;;6.93;6.33;;;13.40;99.90;;;;;;5046709;28;20433;-75
2021/10/03 02:42:34;;;;;;;5.73;5.13;;;13.50;99.90;;;;;;5048914;28;20455;-74
2021/10/03 02:45:00;;;;;;;5.57;5.07;;;13.40;99.90;;;;;;5036649;28;20841;-75
2021/10/03 02:47:26;;;;;;;5.13;4.57;;;13.50;99.90;;;;;;5039686;28;20516;-74
2021/10/03 02:49:51;;;;;;;5.63;5.03;;;13.20;99.90;;;;;;5048013;28;20188;-74
2021/10/03 02:52:17;;;;;;;5.40;4.90;;;13.40;99.90;;;;;;5050069;28;20236;-75
2021/10/03 02:54:43;;;;;;;6.87;5.80;;;13.30;99.90;;;;;;5046583;28;20194;-75
2021/10/03 02:57:09;;;;;;;5.97;5.37;;;13.10;99.90;;;;;;5050618;28;20907;-75
2021/10/03 02:59:35;;;;;;;5.30;4.80;;;13.10;99.90;;;;;;5039351;28;20221;-75
2021/10/03 03:02:01;;;;;;;6.38;5.25;;;13.00;99.90;;;;;;5040652;28;20447;-75
2021/10/03 03:04:26;;;;;;;5.93;5.43;;;13.00;99.90;;;;;;5051097;28;20183;-75
2021/10/03 03:06:52;;;;;;;5.43;4.93;;;12.70;99.90;;;;;;5039437;28;20306;-74
2021/10/03 03:09:18;;;;;;;5.23;4.73;;;12.80;99.90;;;;;;5030745;28;20191;-74
2021/10/03 03:11:43;;;;;;;5.83;5.20;;;13.00;99.90;;;;;;5033540;28;20214;-75
2021/10/03 03:14:09;;;;;;;5.73;5.13;;;12.70;99.90;;;;;;5050282;28;20224;-75
2021/10/03 03:16:45;;;;;;;6.67;5.50;;;12.70;99.90;;;;;;5048060;28;20273;-75
2021/10/03 03:19:11;;;;;;;6.00;5.50;;;12.70;99.90;;;;;;5047825;28;20479;-75
2021/10/03 03:21:37;;;;;;;6.10;5.50;;;12.50;99.90;;;;;;5038632;28;20537;-75
2021/10/03 03:24:04;;;;;;;8.07;5.70;;;12.60;99.90;;;;;;5035865;28;20175;-76
2021/10/03 03:26:30;;;;;;;5.35;4.95;;;12.60;99.90;;;;;;5046146;28;20201;-75
2021/10/03 03:28:55;;;;;;;6.07;5.00;;;12.60;99.90;;;;;;5048461;28;20197;-74
2021/10/03 03:31:21;;;;;;;5.80;5.20;;;12.70;99.90;;;;;;5038068;28;20209;-75
2021/10/03 03:33:47;;;;;;;6.60;5.60;;;12.50;99.90;;;;;;5039073;28;20202;-75
2021/10/03 03:36:12;;;;;;;5.70;5.07;;;12.60;99.90;;;;;;5050156;28;20183;-75
2021/10/03 03:38:38;;;;;;;5.63;5.13;;;12.70;99.90;;;;;;5049065;28;21021;-75
2021/10/03 03:41:06;;;;;;;6.47;5.40;;;12.60;99.90;;;;;;5046184;28;20182;-75
2021/10/03 03:43:32;;;;;;;4.50;4.10;;;12.50;99.90;;;;;;5045991;28;20186;-74
2021/10/03 03:45:57;;;;;;;5.30;4.80;;;12.60;99.90;;;;;;5049186;28;20206;-75
2021/10/03 03:48:23;;;;;;;4.83;4.33;;;12.60;99.90;;;;;;5046075;28;20458;-75
2021/10/03 03:50:49;;;;;;;6.47;5.80;;;12.60;99.90;;;;;;5034616;28;20232;-75
2021/10/03 03:53:14;;;;;;;5.13;4.63;;;12.70;99.90;;;;;;5033646;28;20561;-75
2021/10/03 03:55:40;;;;;;;5.07;4.57;;;12.50;99.90;;;;;;5035332;28;20239;-75
2021/10/03 03:58:05;;;;;;;5.80;5.30;;;12.50;99.90;;;;;;5046771;28;20205;-76
2021/10/03 04:00:31;;;;;;;5.30;4.87;;;12.60;99.90;;;;;;5049308;28;20192;-76
2021/10/03 04:02:56;;;;;;;5.90;5.00;;;12.60;99.90;;;;;;5039438;28;20521;-76
2021/10/03 04:05:22;;;;;;;5.60;5.10;;;12.30;99.90;;;;;;5034971;28;20226;-76
2021/10/03 04:07:48;;;;;;;6.07;5.37;;;12.60;99.90;;;;;;5029957;28;20673;-76
2021/10/03 04:10:13;;;;;;;6.03;5.50;;;12.40;99.90;;;;;;5033239;28;20719;-76
2021/10/03 04:12:39;;;;;;;6.40;5.13;;;12.50;99.90;;;;;;5029954;28;20605;-76
2021/10/03 04:15:06;;;;;;;5.20;4.80;;;12.20;99.90;;;;;;5038255;28;20865;-76
2021/10/03 04:17:32;;;;;;;5.47;4.93;;;12.50;99.90;;;;;;5036974;28;20490;-76
2021/10/03 04:19:58;;;;;;;6.50;5.47;;;12.30;99.90;;;;;;5049460;28;20829;-76
2021/10/03 04:22:23;;;;;;;5.70;5.20;;;12.30;99.90;;;;;;5043069;28;20204;-75
2021/10/03 04:24:49;;;;;;;6.63;5.33;;;12.40;99.90;;;;;;5037174;28;20645;-76
2021/10/03 04:27:15;;;;;;;5.90;5.40;;;12.20;99.90;;;;;;5047487;28;20170;-76
2021/10/03 04:29:41;;;;;;;5.40;4.90;;;12.60;99.90;;;;;;5049665;28;20240;-76
2021/10/03 04:32:07;;;;;;;5.50;5.00;;;12.50;99.90;;;;;;5043232;28;20474;-76
2021/10/03 04:34:33;;;;;;;6.30;5.43;;;12.50;99.90;;;;;;5037956;28;20190;-76
2021/10/03 04:36:59;;;;;;;7.93;5.63;;;12.60;99.90;;;;;;5029263;28;20421;-76
2021/10/03 04:39:26;;;;;;;6.67;5.77;;;12.40;99.90;;;;;;5029903;28;20702;-76
2021/10/03 04:41:52;;;;;;;5.77;5.27;;;12.70;99.90;;;;;;5035014;28;20185;-76
2021/10/03 04:44:17;;;;;;;5.00;4.47;;;12.70;99.90;;;;;;5028927;28;20443;-76
2021/10/03 04:46:43;;;;;;;5.30;4.80;;;12.50;99.90;;;;;;5032006;28;20440;-76
2021/10/03 04:49:08;;;;;;;6.50;5.90;;;12.70;99.90;;;;;;5035777;28;20187;-76
2021/10/03 04:51:34;;;;;;;7.30;6.70;;;12.50;99.90;;;;;;5033498;28;20187;-76
2021/10/03 04:53:59;;;;;;;6.20;5.60;;;12.60;99.90;;;;;;5034370;28;20210;-76
2021/10/03 04:56:25;;;;;;;6.07;5.47;;;12.70;99.90;;;;;;5046081;28;20855;-76
2021/10/03 04:58:50;;;;;;;7.40;6.57;;;12.40;99.90;;;;;;5048995;28;20215;-76
2021/10/03 05:01:17;;;;;;;6.20;5.63;;;12.50;99.90;;;;;;5037631;28;20278;-76
2021/10/03 05:03:43;;;;;;;5.63;5.13;;;12.40;99.90;;;;;;5047422;28;20182;-76
2021/10/03 05:06:10;;;;;;;5.50;5.00;;;12.80;99.90;;;;;;5051077;28;20519;-75
2021/10/03 05:08:36;;;;;;;5.10;4.70;;;12.40;99.90;;;;;;5035566;28;20230;-76
2021/10/03 05:11:02;;;;;;;5.50;5.00;;;12.90;99.90;;;;;;5053154;28;20424;-76
2021/10/03 05:13:27;;;;;;;6.57;4.60;;;12.60;99.90;;;;;;5048212;28;20862;-76
2021/10/03 05:15:53;;;;;;;5.50;5.00;;;13.00;99.90;;;;;;5051450;28;20440;-76
2021/10/03 05:18:19;;;;;;;5.63;5.13;;;13.10;99.90;;;;;;5051556;28;20297;-75
2021/10/03 05:20:44;;;;;;;5.80;5.30;;;13.10;99.90;;;;;;5047585;28;20182;-75
2021/10/03 05:23:10;;;;;;;5.20;4.70;;;13.00;99.90;;;;;;5042899;28;20224;-75
2021/10/03 05:25:35;;;;;;;5.10;4.70;;;12.80;99.90;;;;;;5032834;28;20179;-76
2021/10/03 05:28:01;;;;;;;5.53;5.10;;;13.00;99.90;;;;;;5037145;28;20191;-76
2021/10/03 05:30:27;;;;;;;12.13;11.13;;;13.10;99.90;;;;;;5050804;28;20720;-75
2021/10/03 05:32:52;;;;;;;9.00;8.30;;;13.10;99.90;;;;;;5042292;28;20599;-76
2021/10/03 05:35:18;;;;;;;8.40;7.70;;;13.30;99.90;;;;;;5037372;28;20449;-76
2021/10/03 05:37:44;;;;;;;7.50;6.90;;;13.00;99.90;;;;;;5034712;28;20217;-76
2021/10/03 05:40:10;;;;;;;5.80;5.20;;;13.10;99.90;;;;;;5043971;28;20189;-75
2021/10/03 05:42:36;;;;;;;5.83;5.33;;;13.00;99.90;;;;;;5047367;28;20180;-76
2021/10/03 05:45:02;;;;;;;5.40;4.90;;;12.90;99.90;;;;;;5032210;28;20457;-76
2021/10/03 05:47:27;;;;;;;5.00;4.60;;;13.10;99.90;;;;;;5042244;28;20420;-75
2021/10/03 05:49:53;;;;;;;5.57;5.07;;;13.00;99.90;;;;;;5037588;28;20976;-76
2021/10/03 05:52:18;;;;;;;5.87;5.37;;;13.20;99.90;;;;;;5039498;28;20184;-75
2021/10/03 05:54:44;;;;;;;5.57;5.07;;;12.80;99.90;;;;;;5041188;28;20257;-75
2021/10/03 05:57:09;;;;;;;5.10;4.60;;;13.10;99.90;;;;;;5034803;28;20194;-75
2021/10/03 05:59:36;;;;;;;5.43;4.93;;;13.00;99.90;;;;;;5044995;28;20213;-75
2021/10/03 06:02:01;;;;;;;6.37;5.77;;;13.00;99.90;;;;;;5039492;28;20171;-76
2021/10/03 06:04:27;;;;;;;5.00;4.60;;;13.40;99.90;;;;;;5038200;28;20486;-76
2021/10/03 06:06:52;;;;;;;5.73;5.23;;;13.00;99.90;;;;;;5033022;28;20261;-75
2021/10/03 06:09:18;;;;;;;5.10;4.53;;;12.90;99.90;;;;;;5032650;28;20198;-76
2021/10/03 06:11:44;;;;;;;5.30;4.87;;;13.00;99.90;;;;;;5038774;28;20213;-75
2021/10/03 06:14:10;;;;;;;5.37;4.87;;;13.20;99.90;;;;;;5038040;28;20963;-75
2021/10/03 06:16:35;;;;;;;5.13;4.63;;;13.10;99.90;;;;;;5037419;28;20187;-75
2021/10/03 06:19:01;;;;;;;5.00;4.53;;;13.40;99.90;;;;;;5030152;28;20224;-75
2021/10/03 06:21:27;;;;;;;5.73;5.00;;;13.50;99.90;;;;;;5043612;28;20175;-75
2021/10/03 06:23:53;;;;;;;5.23;4.73;;;13.80;99.90;;;;;;5036379;28;20232;-75
2021/10/03 06:26:19;;;;;;;5.80;5.10;;;13.60;99.90;;;;;;5031193;28;20183;-76
2021/10/03 06:28:45;;;;;;;5.30;4.80;;;14.00;99.90;;;;;;5031756;28;20502;-76
2021/10/03 06:31:11;;;;;;;5.73;4.70;;;13.90;99.90;;;;;;5041220;28;20182;-75
2021/10/03 06:33:38;;;;;;;5.00;4.50;;;14.40;99.90;;;;;;5035763;28;20528;-76
2021/10/03 06:36:04;;;;;;;5.50;5.00;;;14.70;99.90;;;;;;5036654;28;20853;-73
2021/10/03 06:38:30;;;;;;;5.33;4.90;;;15.10;99.90;;;;;;5036372;28;20461;-75
2021/10/03 06:40:55;;;;;;;4.80;4.40;;;15.10;99.90;;;;;;5036597;28;20281;-75
2021/10/03 06:43:21;;;;;;;4.50;4.10;;;15.10;99.90;;;;;;5030142;28;20179;-75
2021/10/03 06:45:47;;;;;;;5.33;4.83;;;15.70;99.90;;;;;;5035304;28;20202;-75
2021/10/03 06:48:12;;;;;;;5.07;4.60;;;15.80;99.90;;;;;;5045348;28;20190;-75
2021/10/03 06:50:38;;;;;;;4.83;4.43;;;15.80;99.90;;;;;;5038579;28;20195;-75
2021/10/03 06:53:04;;;;;;;5.03;4.63;;;16.30;99.90;;;;;;5032452;28;20299;-75
2021/10/03 06:55:31;;;;;;;4.73;3.97;;;16.30;99.90;;;;;;5039219;28;20560;-75
2021/10/03 06:57:56;;;;;;;4.53;4.07;;;16.60;99.90;;;;;;5034002;28;20227;-75
2021/10/03 07:00:22;;;;;;;4.57;4.17;;;16.60;99.90;;;;;;5037301;28;20468;-75
2021/10/03 07:02:47;;;;;;;4.77;4.43;;;16.70;99.90;;;;;;5034869;28;20453;-75
2021/10/03 07:05:13;;;;;;;3.93;3.63;;;16.70;99.90;;;;;;5030805;28;20219;-75
2021/10/03 07:07:38;;;;;;;4.37;4.03;;;17.00;99.90;;;;;;5033104;28;20189;-75
2021/10/03 07:10:05;;;;;;;4.87;4.53;;;16.90;99.90;;;;;;5044210;28;20195;-75
2021/10/03 07:12:31;;;;;;;5.13;4.73;;;16.90;99.90;;;;;;5034676;28;20189;-75
2021/10/03 07:14:56;;;;;;;4.13;3.83;;;16.90;99.90;;;;;;5038921;28;20493;-75
2021/10/03 07:17:22;;;;;;;4.20;3.90;;;17.00;99.90;;;;;;5032119;28;20270;-76
2021/10/03 07:19:47;;;;;;;4.10;3.70;;;16.90;99.90;;;;;;5038067;28;20219;-75
2021/10/03 07:22:13;;;;;;;4.20;3.90;;;17.20;99.90;;;;;;5032860;28;20210;-75
2021/10/03 07:24:38;;;;;;;4.20;3.90;;;16.90;99.90;;;;;;5034551;28;20183;-75
2021/10/03 07:27:05;;;;;;;4.43;4.10;;;17.00;99.90;;;;;;5031756;28;20181;-74
2021/10/03 07:29:32;;;;;;;4.27;3.93;;;17.40;99.90;;;;;;5041360;28;20241;-75
2021/10/03 07:31:57;;;;;;;4.37;3.97;;;17.30;99.90;;;;;;5035460;28;20439;-75
2021/10/03 07:34:23;;;;;;;4.07;3.77;;;17.80;99.90;;;;;;5037742;28;20438;-75
2021/10/03 07:36:48;;;;;;;4.67;4.33;;;17.80;99.90;;;;;;5037092;28;20193;-75
2021/10/03 07:39:14;;;;;;;4.97;4.57;;;17.90;99.90;;;;;;5033005;28;20711;-75
2021/10/03 07:41:40;;;;;;;5.07;4.67;;;18.10;99.90;;;;;;5035855;28;20190;-74
2021/10/03 07:44:05;;;;;;;4.60;4.20;;;18.30;99.90;;;;;;5030421;28;20219;-74
2021/10/03 07:46:31;;;;;;;4.30;4.00;;;18.40;99.90;;;;;;5033233;28;20215;-75
2021/10/03 07:48:56;;;;;;;3.80;3.50;;;18.70;99.90;;;;;;5035742;28;20188;-75
2021/10/03 07:51:22;;;;;;;3.53;3.33;;;18.80;99.90;;;;;;5033669;28;20614;-75
2021/10/03 07:53:48;;;;;;;3.83;3.57;;;18.70;99.90;;;;;;5035500;28;20193;-75
2021/10/03 07:56:14;;;;;;;3.60;3.30;;;19.00;99.90;;;;;;5034156;28;20219;-75
2021/10/03 07:58:39;;;;;;;3.53;3.23;;;19.10;99.90;;;;;;5031717;28;20199;-75
2021/10/03 08:01:05;;;;;;;4.83;3.37;;;19.50;99.90;;;;;;5033610;28;20943;-77
2021/10/03 08:03:31;;;;;;;4.07;3.70;;;19.50;99.00;;;;;;5034298;28;20554;-76
2021/10/03 08:05:56;;;;;;;4.03;3.73;;;19.60;97.80;;;;;;5032513;28;20225;-76
2021/10/03 08:08:22;;;;;;;3.60;3.30;;;19.90;97.00;;;;;;5035241;28;20668;-76
2021/10/03 08:10:48;;;;;;;3.93;3.53;;;19.90;96.60;;;;;;5030467;28;20186;-77
2021/10/03 08:13:14;;;;;;;3.73;3.43;;;20.40;96.30;;;;;;5034356;28;20198;-77
2021/10/03 08:15:41;;;;;;;4.40;4.00;;;20.40;95.20;;;;;;5032733;28;20959;-77
2021/10/03 08:18:07;;;;;;;4.13;3.83;;;20.50;94.40;;;;;;5027851;28;20636;-76
2021/10/03 08:20:34;;;;;;;3.60;3.40;;;20.90;93.90;;;;;;5028680;28;20483;-76
2021/10/03 08:23:00;;;;;;;3.77;3.47;;;21.50;92.80;;;;;;5036876;28;20437;-76
2021/10/03 08:25:26;;;;;;;4.07;3.80;;;21.40;90.30;;;;;;5032050;28;20439;-76
2021/10/03 08:27:51;;;;;;;3.60;3.30;;;21.90;88.60;;;;;;5029287;28;20461;-77
2021/10/03 08:30:17;;;;;;;3.80;3.50;;;22.30;87.40;;;;;;5031507;28;20237;-76
2021/10/03 08:32:43;;;;;;;3.43;3.23;;;22.40;86.30;;;;;;5039167;28;20190;-76
2021/10/03 08:35:09;;;;;;;3.67;3.33;;;22.50;84.50;;;;;;5040287;28;20274;-77
2021/10/03 08:37:37;;;;;;;4.30;3.90;;;22.80;82.80;;;;;;5032581;28;20441;-77
2021/10/03 08:40:07;;;;;;;4.23;3.83;;;22.60;80.00;;;;;;5029708;28;20435;-77
2021/10/03 08:42:33;;;;;;;3.73;3.53;;;22.40;78.30;;;;;;5029629;28;20430;-76
2021/10/03 08:44:59;;;;;;;3.50;3.20;;;22.60;77.50;;;;;;5037689;28;20462;-76
2021/10/03 08:47:25;;;;;;;4.60;4.40;;;22.40;75.90;;;;;;5037301;28;20517;-76
2021/10/03 08:49:54;;;;;;;5.10;4.70;;;22.40;72.20;;;;;;5026405;28;20529;-76
2021/10/03 08:52:25;;;;;;;4.17;3.87;;;22.60;72.40;;;;;;5028568;28;20269;-76
2021/10/03 08:54:52;;;;;;;3.87;3.57;;;22.50;72.40;;;;;;5032079;28;20437;-76
2021/10/03 08:57:36;;;;;;;3.70;3.43;;;22.30;70.70;;;;;;5031791;28;20539;-77
2021/10/03 09:00:12;;;;;;;3.63;3.33;;;22.10;70.70;;;;;;5024573;28;20988;-77
2021/10/03 09:03:02;;;;;;;3.67;3.47;;;21.80;70.40;;;;;;5030823;28;20477;-77
2021/10/03 09:05:39;;;;;;;3.80;3.50;;;21.90;70.90;;;;;;5030942;28;20485;-76
2021/10/03 09:08:13;;;;;;;3.60;3.30;;;21.90;70.70;;;;;;5033404;28;20584;-77
2021/10/03 09:10:48;;;;;;;4.30;3.93;;;21.30;69.90;;;;;;5035821;28;20449;-76
2021/10/03 09:13:15;;;;;;;3.70;3.40;;;21.30;69.50;;;;;;5033327;28;20928;-75
2021/10/03 09:15:42;;;;;;;3.87;3.57;;;21.60;70.00;;;;;;5028439;28;20434;-74
2021/10/03 09:18:08;;;;;;;4.17;3.87;;;21.20;69.90;;;;;;5035817;28;20474;-76
2021/10/03 09:20:34;;;;;;;4.33;4.03;;;21.50;70.50;;;;;;5028530;28;20469;-74
2021/10/03 09:23:11;;;;;;;3.60;3.30;;;21.40;70.10;;;;;;5029244;28;20279;-74
2021/10/03 09:25:46;;;;;;;4.90;4.50;;;21.60;69.70;;;;;;5031967;28;20495;-74
2021/10/03 09:28:19;;;;;;;7.17;6.57;;;21.30;69.10;;;;;;5033531;28;20494;-74
2021/10/03 09:31:06;;;;;;;4.47;4.07;;;21.30;69.50;;;;;;5031576;28;20433;-74
2021/10/03 09:33:41;;;;;;;3.80;3.50;;;21.20;69.50;;;;;;5039767;28;20682;-74
2021/10/03 09:36:08;;;;;;;3.70;3.50;;;21.40;69.30;;;;;;5034915;28;20436;-74
2021/10/03 09:38:42;;;;;;;6.13;4.37;;;21.70;68.90;;;;;;5036233;28;20464;-74
2021/10/03 09:41:09;;;;;;;4.10;3.80;;;21.90;67.50;;;;;;5039122;28;21150;-74
2021/10/03 09:43:46;;;;;;;4.20;3.80;;;22.20;67.30;;;;;;5036970;28;20465;-74
2021/10/03 09:46:35;;;;;;;3.60;3.40;;;22.10;66.40;;;;;;5034542;28;20467;-74
2021/10/03 09:49:04;;;;;;;3.67;3.40;;;22.10;66.00;;;;;;5033325;28;20811;-74
2021/10/03 09:51:30;;;;;;;3.83;3.53;;;22.10;66.80;;;;;;5036917;28;20477;-74
2021/10/03 09:53:56;;;;;;;4.27;3.87;;;22.10;67.00;;;;;;5033861;28;21012;-74
2021/10/03 09:56:22;;;;;;;3.50;3.20;;;21.90;67.30;;;;;;5035196;28;20195;-76
2021/10/03 09:58:49;;;;;;;3.87;3.63;;;21.80;67.70;;;;;;5038403;28;20546;-76
2021/10/03 10:01:16;;;;;;;3.60;3.30;;;21.70;68.50;;;;;;5033718;28;20438;-73
2021/10/03 10:03:42;;;;;;;3.63;3.30;;;21.80;69.30;;;;;;5035677;28;20842;-74
2021/10/03 10:06:08;;;;;;;3.73;3.43;;;21.80;70.50;;;;;;5037638;28;20576;-74
2021/10/03 10:08:36;;;;;;;3.37;3.10;;;21.60;71.30;;;;;;5034651;28;20500;-75
2021/10/03 10:11:16;;;;;;;3.33;3.13;;;21.90;72.40;;;;;;5039207;28;20207;-75
2021/10/03 10:13:52;;;;;;;3.80;3.40;;;21.90;73.30;;;;;;5034744;28;20944;-74
2021/10/03 10:16:44;;;;;;;3.10;2.90;;;22.50;73.40;;;;;;5037999;28;20687;-74
2021/10/03 10:19:38;;;;;;;3.80;3.50;;;22.50;71.00;;;;;;5036923;28;20552;-75
2021/10/03 10:22:16;;;;;;;3.97;3.67;;;22.80;69.50;;;;;;5036023;28;20980;-75
2021/10/03 10:24:45;;;;;;;4.27;3.60;;;22.90;68.90;;;;;;5031764;28;20437;-75
2021/10/03 10:27:29;;;;;;;4.37;4.00;;;23.40;68.10;;;;;;5039481;28;20433;-75
2021/10/03 10:30:05;;;;;;;3.93;3.63;;;23.50;67.10;;;;;;5033368;28;20495;-75
2021/10/03 10:33:05;;;;;;;4.10;3.83;;;23.40;65.90;;;;;;5034554;28;20434;-74
2021/10/03 10:35:34;;;;;;;3.43;3.10;;;23.70;65.30;;;;;;5037932;28;20446;-75
2021/10/03 10:38:02;;;;;;;3.50;2.87;;;23.70;64.00;;;;;;5033772;28;20559;-75
2021/10/03 10:40:33;;;;;;;3.50;3.23;;;23.70;62.40;;;;;;5032501;28;20456;-76
2021/10/03 10:43:02;;;;;;;3.43;3.13;;;23.80;62.00;;;;;;5041925;28;20435;-75
2021/10/03 10:45:27;;;;;;;4.93;4.60;;;24.00;62.30;;;;;;5033201;28;20456;-75
2021/10/03 10:48:08;;;;;;;7.13;6.53;;;24.10;61.50;;;;;;5034433;28;20467;-75
2021/10/03 10:50:54;;;;;;;5.20;4.80;;;24.00;59.90;;;;;;5030849;28;20662;-75
2021/10/03 10:53:22;;;;;;;4.60;4.20;;;24.10;60.00;;;;;;5032342;28;20437;-75
2021/10/03 10:56:11;;;;;;;4.07;3.63;;;23.90;60.90;;;;;;5036112;28;20447;-76
2021/10/03 10:58:58;;;;;;;3.83;3.60;;;24.10;61.80;;;;;;5038397;28;20472;-74
2021/10/03 11:01:29;;;;;;;3.43;3.13;;;24.10;61.60;;;;;;5039428;28;20788;-75
2021/10/03 11:03:59;;;;;;;4.43;4.13;;;24.10;62.20;;;;;;5036096;28;21326;-75
2021/10/03 11:06:27;;;;;;;3.30;3.10;;;24.20;62.00;;;;;;5034118;28;20474;-75
2021/10/03 11:08:58;;;;;;;3.63;3.33;;;24.20;61.10;;;;;;5030669;28;20514;-75
2021/10/03 11:11:29;;;;;;;6.20;3.77;;;24.00;60.40;;;;;;5032920;28;20472;-75
2021/10/03 11:13:59;;;;;;;4.40;4.10;;;24.10;61.30;;;;;;5036935;28;20474;-75
2021/10/03 11:16:27;;;;;;;3.90;3.60;;;23.90;61.40;;;;;;5039902;28;20995;-75
2021/10/03 11:19:39;;;;;;;5.20;3.50;;;23.80;60.80;;;;;;5031709;28;20833;-75
2021/10/03 11:22:23;;;;;;;3.37;3.17;;;23.80;61.70;;;;;;5036174;28;20448;-76
2021/10/03 11:24:54;;;;;;;2.93;2.73;;;23.60;62.50;;;;;;5031568;28;20790;-76
2021/10/03 11:27:23;;;;;;;3.37;3.17;;;23.40;63.30;;;;;;5038914;28;20434;-76
2021/10/03 11:29:54;;;;;;;3.30;3.10;;;23.90;65.10;;;;;;5035900;28;20965;-75
2021/10/03 11:32:27;;;;;;;3.13;2.90;;;23.70;64.40;;;;;;5041032;28;20470;-75
2021/10/03 11:34:55;;;;;;;3.60;3.30;;;23.60;63.00;;;;;;5034344;28;20428;-75
2021/10/03 11:37:29;;;;;;;3.43;3.13;;;23.60;63.10;;;;;;5033970;28;20437;-74
2021/10/03 11:39:58;;;;;;;3.80;3.50;;;23.90;63.60;;;;;;5035134;28;21296;-76
2021/10/03 11:42:29;;;;;;;3.80;3.50;;;23.90;62.10;;;;;;5034432;28;20429;-75
2021/10/03 11:45:06;;;;;;;3.57;3.27;;;23.90;61.90;;;;;;5032255;28;20530;-75
2021/10/03 11:47:37;;;;;;;4.37;4.07;;;23.90;61.30;;;;;;5034020;28;20436;-75
2021/10/03 11:50:03;;;;;;;3.20;3.00;;;23.70;60.60;;;;;;5042085;28;20870;-76
2021/10/03 11:52:36;;;;;;;4.10;3.77;;;23.60;60.50;;;;;;5039026;28;20525;-75
2021/10/03 11:55:09;;;;;;;3.30;3.00;;;23.60;59.90;;;;;;5037567;28;20436;-74
2021/10/03 11:57:46;;;;;;;4.00;3.70;;;23.60;59.80;;;;;;5033464;28;21018;-75
2021/10/03 12:00:13;;;;;;;4.30;4.00;;;23.90;60.00;;;;;;5037607;28;20437;-75
2021/10/03 12:02:42;;;;;;;3.57;3.37;;;24.20;60.30;;;;;;5033570;28;20547;-75
2021/10/03 12:05:09;;;;;;;4.07;3.77;;;25.00;60.40;;;;;;5037613;28;20494;-75
2021/10/03 12:07:35;;;;;;;3.97;3.67;;;25.60;59.10;;;;;;5041026;28;20844;-75
2021/10/03 12:10:08;;;;;;;3.77;3.47;;;26.00;57.30;;;;;;5033184;28;20447;-75
2021/10/03 12:12:56;;;;;;;3.47;3.17;;;26.30;55.80;;;;;;5030341;28;20439;-76
2021/10/03 12:15:32;;;;;;;4.00;3.80;;;26.60;54.90;;;;;;5035879;28;20551;-75
2021/10/03 12:17:58;;;;;;;3.20;3.00;;;26.90;51.30;;;;;;5034478;28;20468;-75
2021/10/03 12:20:23;;;;;;;3.50;3.00;;;27.30;51.00;;;;;;5030798;28;20433;-76
2021/10/03 12:22:56;;;;;;;3.20;3.00;;;27.60;47.50;;;;;;5036514;28;20171;-75
2021/10/03 12:25:37;;;;;;;3.17;2.93;;;27.70;48.00;;;;;;5033822;28;20273;-74
2021/10/03 12:28:02;;;;;;;3.00;2.80;;;27.70;48.20;;;;;;5029892;28;20441;-75
2021/10/03 12:30:49;;;;;;;3.30;3.10;;;27.50;48.40;;;;;;5038048;28;20461;-75
2021/10/03 12:33:15;;;;;;;3.63;3.43;;;27.40;50.40;;;;;;5030248;28;20234;-75
2021/10/03 12:35:59;;;;;;;3.30;3.10;;;27.40;51.20;;;;;;5032939;28;20429;-75
2021/10/03 12:38:25;;;;;;;2.90;2.70;;;27.30;50.30;;;;;;5029225;28;20463;-75
2021/10/03 12:40:51;;;;;;;3.23;3.03;;;27.30;50.60;;;;;;5029594;28;20793;-75
2021/10/03 12:43:16;;;;;;;3.20;3.00;;;27.40;50.50;;;;;;5033403;28;20432;-76
2021/10/03 12:45:42;;;;;;;3.50;3.30;;;27.50;50.40;;;;;;5033987;28;20203;-76
2021/10/03 12:48:07;;;;;;;3.43;3.23;;;27.70;51.20;;;;;;5031693;28;20197;-75
2021/10/03 12:50:33;;;;;;;3.20;3.00;;;27.90;51.20;;;;;;5037676;28;20685;-75
2021/10/03 12:53:06;;;;;;;3.17;2.93;;;27.90;50.40;;;;;;5028933;28;20186;-75